SAS930 EKCH-KLAX
Flight info
| Callsign | SAS930 |
|---|---|
| Flight time | N/A |
| Altitude | 36000 |
| Route | GOLGA DCT RETKA DCT ISVIG/M083F360 DCT 68N010W 71N020W 73N040W 73N060W DCT MEDPA/N0483F360 DCT 70N081W 65N094W 60N101W 55N105W DCT ITREK DCT LWT DCT TCH DCT DTA DCT BLD DCT OTOOL DCT BCALL DCT LEMMN DCT ANJLL ANJLL4 |
| Aircraft | A333/H-SDE3GHIJ2J3J5M1RVWXY/LB2D1 |
Departure
| Time | 2026-05-05 23:19 |
|---|---|
| Airport | Copenhagen Kastrup Airport (EKCH) |
Arrival
| Time | N/A |
|---|---|
| Airport | Los Angeles International Airport (KLAX) |
| Time | Latitude | Longitude | Altitude | Speed | Heading |
|---|---|---|---|---|---|
| 2026-05-05 22:57 | 55.62429 | 12.65071 | 21 ft | 0 kts | 269° |
| 2026-05-05 23:05 | 55.62429 | 12.65093 | 22 ft | 4 kts | 269° |
| 2026-05-05 23:05 | 55.62430 | 12.65140 | 24 ft | 4 kts | 264° |
| 2026-05-05 23:05 | 55.62437 | 12.65182 | 25 ft | 4 kts | 225° |
| 2026-05-05 23:05 | 55.62458 | 12.65200 | 26 ft | 2 kts | 179° |
| 2026-05-05 23:06 | 55.62480 | 12.65200 | 24 ft | 4 kts | 179° |
| 2026-05-05 23:06 | 55.62507 | 12.65199 | 23 ft | 4 kts | 179° |
| 2026-05-05 23:06 | 55.62518 | 12.65198 | 25 ft | 0 kts | 179° |
| 2026-05-05 23:10 | 55.62517 | 12.65198 | 25 ft | 0 kts | 179° |
| 2026-05-05 23:10 | 55.62501 | 12.65199 | 25 ft | 5 kts | 179° |
| 2026-05-05 23:11 | 55.62445 | 12.65201 | 26 ft | 10 kts | 179° |
| 2026-05-05 23:11 | 55.62371 | 12.65204 | 24 ft | 11 kts | 178° |
| 2026-05-05 23:11 | 55.62291 | 12.65200 | 24 ft | 13 kts | 181° |
| 2026-05-05 23:11 | 55.62194 | 12.65162 | 23 ft | 15 kts | 208° |
| 2026-05-05 23:12 | 55.62105 | 12.65062 | 21 ft | 15 kts | 212° |
| 2026-05-05 23:12 | 55.62018 | 12.64965 | 25 ft | 15 kts | 212° |
| 2026-05-05 23:12 | 55.61930 | 12.64863 | 21 ft | 15 kts | 215° |
| 2026-05-05 23:12 | 55.61841 | 12.64761 | 23 ft | 15 kts | 213° |
| 2026-05-05 23:13 | 55.61753 | 12.64660 | 23 ft | 15 kts | 213° |
| 2026-05-05 23:13 | 55.61665 | 12.64558 | 23 ft | 15 kts | 213° |
| 2026-05-05 23:13 | 55.61578 | 12.64457 | 24 ft | 15 kts | 213° |
| 2026-05-05 23:13 | 55.61483 | 12.64347 | 26 ft | 17 kts | 213° |
| 2026-05-05 23:14 | 55.61384 | 12.64234 | 22 ft | 17 kts | 213° |
| 2026-05-05 23:14 | 55.61284 | 12.64119 | 23 ft | 17 kts | 213° |
| 2026-05-05 23:14 | 55.61185 | 12.64004 | 23 ft | 17 kts | 213° |
| 2026-05-05 23:14 | 55.61086 | 12.63890 | 25 ft | 17 kts | 213° |
| 2026-05-05 23:15 | 55.60987 | 12.63776 | 25 ft | 17 kts | 213° |
| 2026-05-05 23:15 | 55.60890 | 12.63664 | 21 ft | 17 kts | 213° |
| 2026-05-05 23:15 | 55.60792 | 12.63552 | 24 ft | 17 kts | 213° |
| 2026-05-05 23:15 | 55.60693 | 12.63440 | 23 ft | 17 kts | 213° |
| 2026-05-05 23:16 | 55.60602 | 12.63315 | 21 ft | 15 kts | 221° |
| 2026-05-05 23:16 | 55.60523 | 12.63193 | 23 ft | 15 kts | 221° |
| 2026-05-05 23:16 | 55.60443 | 12.63116 | 23 ft | 12 kts | 178° |
| 2026-05-05 23:16 | 55.60380 | 12.63196 | 22 ft | 10 kts | 132° |
| 2026-05-05 23:17 | 55.60341 | 12.63271 | 27 ft | 6 kts | 132° |
| 2026-05-05 23:17 | 55.60325 | 12.63318 | 27 ft | 2 kts | 96° |
| 2026-05-05 23:17 | 55.60339 | 12.63345 | 25 ft | 5 kts | 43° |
| 2026-05-05 23:17 | 55.60361 | 12.63379 | 23 ft | 0 kts | 41° |
| 2026-05-05 23:18 | 55.60361 | 12.63380 | 23 ft | 0 kts | 41° |
| 2026-05-05 23:18 | 55.60364 | 12.63384 | 24 ft | 1 kts | 41° |
| 2026-05-05 23:18 | 55.60374 | 12.63401 | 37 ft | 3 kts | 42° |
| 2026-05-05 23:18 | 55.60435 | 12.63498 | 25 ft | 32 kts | 42° |
| 2026-05-05 23:19 | 55.60759 | 12.63997 | 28 ft | 91 kts | 41° |
| 2026-05-05 23:19 | 55.61375 | 12.64951 | 27 ft | 143 kts | 41° |
| 2026-05-05 23:19 | 55.62221 | 12.66236 | 366 ft | 164 kts | 39° |
| 2026-05-05 23:19 | 55.63077 | 12.67518 | 1240 ft | 160 kts | 37° |
| 2026-05-05 23:20 | 55.63953 | 12.68834 | 1858 ft | 170 kts | 38° |
| 2026-05-05 23:20 | 55.64901 | 12.70263 | 2132 ft | 189 kts | 35° |
| 2026-05-05 23:20 | 55.66151 | 12.71201 | 2328 ft | 207 kts | 3° |
| 2026-05-05 23:20 | 55.67600 | 12.70674 | 2533 ft | 227 kts | 342° |
| 2026-05-05 23:21 | 55.69201 | 12.70140 | 2921 ft | 240 kts | 353° |
| 2026-05-05 23:21 | 55.70891 | 12.69874 | 3466 ft | 247 kts | 355° |
| 2026-05-05 23:21 | 55.72611 | 12.69664 | 4086 ft | 249 kts | 355° |
| 2026-05-05 23:21 | 55.74358 | 12.69470 | 4757 ft | 251 kts | 355° |
| 2026-05-05 23:22 | 55.76108 | 12.69266 | 5406 ft | 254 kts | 352° |
| 2026-05-05 23:22 | 55.77831 | 12.68531 | 6042 ft | 256 kts | 336° |
| 2026-05-05 23:22 | 55.79351 | 12.66863 | 6639 ft | 259 kts | 319° |
| 2026-05-05 23:22 | 55.80698 | 12.64716 | 7293 ft | 261 kts | 315° |
| 2026-05-05 23:23 | 55.82002 | 12.62459 | 7964 ft | 263 kts | 313° |
| 2026-05-05 23:23 | 55.83289 | 12.60185 | 8643 ft | 265 kts | 312° |
| 2026-05-05 23:23 | 55.84599 | 12.57858 | 9319 ft | 267 kts | 311° |
| 2026-05-05 23:23 | 55.85922 | 12.55503 | 9980 ft | 270 kts | 310° |
| 2026-05-05 23:24 | 55.87273 | 12.53089 | 10353 ft | 282 kts | 310° |
| 2026-05-05 23:24 | 55.88701 | 12.50533 | 10590 ft | 299 kts | 311° |
| 2026-05-05 23:24 | 55.90204 | 12.47842 | 10848 ft | 314 kts | 311° |
| 2026-05-05 23:24 | 55.91783 | 12.45016 | 11104 ft | 329 kts | 311° |
| 2026-05-05 23:25 | 55.93438 | 12.42055 | 11342 ft | 344 kts | 311° |
| 2026-05-05 23:25 | 55.95156 | 12.38975 | 11702 ft | 354 kts | 311° |
| 2026-05-05 23:25 | 55.96908 | 12.35837 | 12286 ft | 358 kts | 310° |
| 2026-05-05 23:25 | 55.98650 | 12.32713 | 12869 ft | 361 kts | 310° |
| 2026-05-05 23:26 | 56.00427 | 12.29517 | 13434 ft | 364 kts | 310° |
| 2026-05-05 23:26 | 56.02230 | 12.26269 | 13989 ft | 368 kts | 310° |
| 2026-05-05 23:26 | 56.04028 | 12.23023 | 14491 ft | 370 kts | 310° |
| 2026-05-05 23:26 | 56.05860 | 12.19712 | 15004 ft | 373 kts | 310° |
| 2026-05-05 23:27 | 56.07693 | 12.16394 | 15503 ft | 376 kts | 310° |
| 2026-05-05 23:27 | 56.09542 | 12.13044 | 16012 ft | 379 kts | 310° |
| 2026-05-05 23:27 | 56.11402 | 12.09667 | 16519 ft | 382 kts | 310° |
| 2026-05-05 23:27 | 56.13275 | 12.06261 | 16996 ft | 385 kts | 310° |
| 2026-05-05 23:28 | 56.15144 | 12.02858 | 17503 ft | 387 kts | 310° |
| 2026-05-05 23:28 | 56.17036 | 11.99409 | 17902 ft | 389 kts | 310° |
| 2026-05-05 23:28 | 56.18855 | 11.96087 | 18274 ft | 392 kts | 310° |
| 2026-05-05 23:28 | 56.20721 | 11.92675 | 18683 ft | 394 kts | 310° |
| 2026-05-05 23:29 | 56.22645 | 11.89151 | 19107 ft | 396 kts | 310° |
| 2026-05-05 23:29 | 56.24579 | 11.85603 | 19515 ft | 398 kts | 309° |
| 2026-05-05 23:29 | 56.26523 | 11.82030 | 19916 ft | 400 kts | 309° |
| 2026-05-05 23:29 | 56.28473 | 11.78444 | 20357 ft | 402 kts | 309° |
| 2026-05-05 23:30 | 56.30431 | 11.74838 | 20845 ft | 402 kts | 309° |
| 2026-05-05 23:30 | 56.32402 | 11.71252 | 21231 ft | 405 kts | 311° |
| 2026-05-05 23:30 | 56.34552 | 11.67920 | 21597 ft | 411 kts | 316° |
| 2026-05-05 23:30 | 56.36837 | 11.64766 | 21971 ft | 415 kts | 318° |
| 2026-05-05 23:31 | 56.39186 | 11.61707 | 22364 ft | 417 kts | 319° |
| 2026-05-05 23:31 | 56.41572 | 11.58676 | 22745 ft | 420 kts | 319° |
| 2026-05-05 23:31 | 56.43944 | 11.55681 | 23139 ft | 421 kts | 319° |
| 2026-05-05 23:31 | 56.46348 | 11.52630 | 23549 ft | 423 kts | 319° |
| 2026-05-05 23:32 | 56.48755 | 11.49545 | 23839 ft | 425 kts | 319° |
| 2026-05-05 23:32 | 56.51170 | 11.46427 | 24143 ft | 427 kts | 319° |
| 2026-05-05 23:32 | 56.53591 | 11.43281 | 24433 ft | 429 kts | 319° |
| 2026-05-05 23:32 | 56.56024 | 11.40107 | 24746 ft | 431 kts | 319° |
| 2026-05-05 23:33 | 56.58466 | 11.36916 | 25045 ft | 433 kts | 319° |
| 2026-05-05 23:33 | 56.60918 | 11.33704 | 25364 ft | 436 kts | 319° |
| 2026-05-05 23:33 | 56.63379 | 11.30478 | 25658 ft | 438 kts | 319° |
| 2026-05-05 23:33 | 56.65855 | 11.27227 | 25956 ft | 439 kts | 319° |
| 2026-05-05 23:34 | 56.68336 | 11.23964 | 26252 ft | 441 kts | 319° |
| 2026-05-05 23:34 | 56.70826 | 11.20686 | 26569 ft | 443 kts | 319° |
| 2026-05-05 23:34 | 56.73328 | 11.17387 | 26860 ft | 445 kts | 318° |
| 2026-05-05 23:34 | 56.75843 | 11.14063 | 27138 ft | 447 kts | 318° |
| 2026-05-05 23:35 | 56.78363 | 11.10729 | 27417 ft | 449 kts | 318° |
| 2026-05-05 23:35 | 56.80893 | 11.07375 | 27698 ft | 450 kts | 318° |
| 2026-05-05 23:35 | 56.83400 | 11.04046 | 27978 ft | 452 kts | 318° |
| 2026-05-05 23:35 | 56.85949 | 11.00655 | 28243 ft | 454 kts | 318° |
| 2026-05-05 23:36 | 56.88506 | 10.97247 | 28495 ft | 456 kts | 318° |
| 2026-05-05 23:36 | 56.91075 | 10.93820 | 28829 ft | 457 kts | 318° |
| 2026-05-05 23:36 | 56.93638 | 10.90397 | 29348 ft | 454 kts | 318° |
| 2026-05-05 23:36 | 56.96181 | 10.86998 | 29786 ft | 451 kts | 317° |
| 2026-05-05 23:37 | 56.98714 | 10.83602 | 30153 ft | 451 kts | 317° |
| 2026-05-05 23:37 | 57.01244 | 10.80201 | 30472 ft | 450 kts | 317° |
| 2026-05-05 23:37 | 57.03765 | 10.76805 | 30780 ft | 449 kts | 317° |
| 2026-05-05 23:37 | 57.06278 | 10.73415 | 31096 ft | 448 kts | 317° |
| 2026-05-05 23:38 | 57.08790 | 10.70020 | 31400 ft | 447 kts | 317° |
| 2026-05-05 23:38 | 57.11295 | 10.66628 | 31709 ft | 447 kts | 317° |
| 2026-05-05 23:38 | 57.13795 | 10.63238 | 32002 ft | 446 kts | 317° |
| 2026-05-05 23:38 | 57.16295 | 10.59842 | 32295 ft | 445 kts | 317° |
| 2026-05-05 23:39 | 57.18785 | 10.56455 | 32583 ft | 445 kts | 317° |
| 2026-05-05 23:39 | 57.21271 | 10.53067 | 32910 ft | 444 kts | 316° |
| 2026-05-05 23:39 | 57.23722 | 10.49723 | 33255 ft | 442 kts | 316° |
| 2026-05-05 23:39 | 57.26193 | 10.46347 | 33546 ft | 440 kts | 316° |
| 2026-05-05 23:40 | 57.28656 | 10.42973 | 33811 ft | 440 kts | 316° |
| 2026-05-05 23:40 | 57.31117 | 10.39594 | 34030 ft | 440 kts | 316° |
| 2026-05-05 23:40 | 57.33572 | 10.36218 | 34207 ft | 440 kts | 316° |
| 2026-05-05 23:40 | 57.36032 | 10.32829 | 34398 ft | 440 kts | 316° |
| 2026-05-05 23:41 | 57.38491 | 10.29437 | 34577 ft | 440 kts | 316° |
| 2026-05-05 23:41 | 57.40954 | 10.26033 | 34750 ft | 441 kts | 316° |
| 2026-05-05 23:41 | 57.43411 | 10.22632 | 34900 ft | 441 kts | 316° |
| 2026-05-05 23:41 | 57.45869 | 10.19226 | 35175 ft | 439 kts | 317° |
| 2026-05-05 23:42 | 57.48282 | 10.15879 | 35384 ft | 439 kts | 317° |
| 2026-05-05 23:42 | 57.50733 | 10.12469 | 35492 ft | 440 kts | 317° |
| 2026-05-05 23:42 | 57.53190 | 10.09044 | 35672 ft | 441 kts | 317° |
| 2026-05-05 23:42 | 57.55637 | 10.05629 | 35858 ft | 440 kts | 317° |
| 2026-05-05 23:43 | 57.58090 | 10.02199 | 35961 ft | 441 kts | 317° |
| 2026-05-05 23:43 | 57.60550 | 9.98751 | 35976 ft | 443 kts | 317° |
| 2026-05-05 23:43 | 57.65482 | 9.91823 | 35973 ft | 443 kts | 317° |
| 2026-05-05 23:44 | 57.70409 | 9.84884 | 35975 ft | 443 kts | 317° |
| 2026-05-05 23:44 | 57.75299 | 9.77971 | 35978 ft | 443 kts | 316° |
| 2026-05-05 23:45 | 57.80219 | 9.70990 | 35976 ft | 442 kts | 316° |
| 2026-05-05 23:45 | 57.85103 | 9.64038 | 35969 ft | 440 kts | 316° |
| 2026-05-05 23:46 | 57.89965 | 9.57091 | 35974 ft | 439 kts | 316° |
| 2026-05-05 23:46 | 57.94821 | 9.50125 | 35971 ft | 439 kts | 316° |
| 2026-05-05 23:47 | 57.99664 | 9.43129 | 35971 ft | 438 kts | 315° |
| 2026-05-05 23:47 | 58.04404 | 9.35990 | 35965 ft | 437 kts | 315° |
| 2026-05-05 23:48 | 58.09122 | 9.28740 | 35965 ft | 437 kts | 314° |
| 2026-05-05 23:48 | 58.13841 | 9.21475 | 35969 ft | 437 kts | 314° |
| 2026-05-05 23:49 | 58.18572 | 9.14191 | 35953 ft | 438 kts | 314° |
| 2026-05-05 23:49 | 58.23299 | 9.06898 | 35952 ft | 438 kts | 314° |
| 2026-05-05 23:50 | 58.28027 | 8.99579 | 35950 ft | 438 kts | 314° |
| 2026-05-05 23:50 | 58.32717 | 8.92291 | 35944 ft | 438 kts | 314° |
| 2026-05-05 23:51 | 58.37438 | 8.84930 | 35944 ft | 438 kts | 314° |
| 2026-05-05 23:51 | 58.42151 | 8.77554 | 35938 ft | 438 kts | 314° |
| 2026-05-05 23:52 | 58.46863 | 8.70152 | 35939 ft | 437 kts | 314° |
| 2026-05-05 23:52 | 58.51533 | 8.62792 | 35938 ft | 437 kts | 314° |
| 2026-05-05 23:53 | 58.56216 | 8.55382 | 35933 ft | 437 kts | 314° |
| 2026-05-05 23:53 | 58.60896 | 8.47951 | 35937 ft | 437 kts | 314° |
| 2026-05-05 23:54 | 58.65577 | 8.40493 | 35938 ft | 436 kts | 314° |
| 2026-05-05 23:54 | 58.70245 | 8.33027 | 35938 ft | 436 kts | 314° |
| 2026-05-05 23:55 | 58.74883 | 8.25584 | 35947 ft | 436 kts | 314° |
| 2026-05-05 23:55 | 58.79555 | 8.18058 | 35955 ft | 436 kts | 314° |
| 2026-05-05 23:56 | 58.84206 | 8.10540 | 35960 ft | 436 kts | 314° |
| 2026-05-05 23:56 | 58.88848 | 8.03009 | 35956 ft | 436 kts | 314° |
| 2026-05-05 23:57 | 58.93464 | 7.95492 | 35954 ft | 436 kts | 314° |
| 2026-05-05 23:57 | 58.98102 | 7.87912 | 35976 ft | 436 kts | 314° |
| 2026-05-05 23:58 | 59.02730 | 7.80321 | 35975 ft | 436 kts | 313° |
| 2026-05-05 23:58 | 59.06602 | 7.73947 | 35975 ft | 435 kts | 313° |
| 2026-05-05 23:59 | 59.11195 | 7.66365 | 35991 ft | 435 kts | 314° |
| 2026-05-05 23:59 | 59.15817 | 7.58704 | 35984 ft | 435 kts | 314° |
| 2026-05-06 00:00 | 59.20424 | 7.51042 | 35991 ft | 435 kts | 314° |
| 2026-05-06 00:00 | 59.24997 | 7.43406 | 35995 ft | 435 kts | 314° |
| 2026-05-06 00:01 | 59.29590 | 7.35715 | 35997 ft | 435 kts | 314° |
| 2026-05-06 00:01 | 59.34181 | 7.27992 | 35994 ft | 435 kts | 314° |
| 2026-05-06 00:02 | 59.38769 | 7.20246 | 35997 ft | 435 kts | 313° |
| 2026-05-06 00:02 | 59.43354 | 7.12476 | 35990 ft | 435 kts | 314° |
| 2026-05-06 00:03 | 59.47947 | 7.04660 | 35997 ft | 438 kts | 314° |
| 2026-05-06 00:03 | 59.52538 | 6.96823 | 35990 ft | 439 kts | 313° |
| 2026-05-06 00:04 | 59.57149 | 6.88925 | 35991 ft | 439 kts | 313° |
| 2026-05-06 00:04 | 59.61751 | 6.81013 | 35993 ft | 439 kts | 313° |
| 2026-05-06 00:05 | 59.68654 | 6.69089 | 35979 ft | 439 kts | 313° |
| 2026-05-06 00:06 | 59.73250 | 6.61105 | 35995 ft | 439 kts | 313° |
| 2026-05-06 00:06 | 59.77842 | 6.53098 | 35988 ft | 439 kts | 313° |
| 2026-05-06 00:07 | 59.82406 | 6.45122 | 35973 ft | 435 kts | 313° |
| 2026-05-06 00:07 | 59.86918 | 6.37197 | 35978 ft | 435 kts | 313° |
| 2026-05-06 00:08 | 59.91480 | 6.29149 | 35973 ft | 435 kts | 313° |
| 2026-05-06 00:08 | 59.95988 | 6.21172 | 35966 ft | 435 kts | 313° |
| 2026-05-06 00:09 | 60.00509 | 6.13135 | 35974 ft | 435 kts | 313° |
| 2026-05-06 00:09 | 60.05026 | 6.05074 | 35992 ft | 435 kts | 313° |
| 2026-05-06 00:10 | 60.09560 | 5.96960 | 35978 ft | 437 kts | 313° |
| 2026-05-06 00:10 | 60.14092 | 5.88821 | 35975 ft | 437 kts | 313° |
| 2026-05-06 00:11 | 60.18581 | 5.80726 | 35981 ft | 437 kts | 313° |
| 2026-05-06 00:11 | 60.23096 | 5.72551 | 35981 ft | 437 kts | 313° |
| 2026-05-06 00:12 | 60.27608 | 5.64351 | 35978 ft | 436 kts | 312° |
| 2026-05-06 00:12 | 60.32108 | 5.56140 | 35990 ft | 436 kts | 312° |
| 2026-05-06 00:13 | 60.36612 | 5.47884 | 36007 ft | 437 kts | 313° |
| 2026-05-06 00:13 | 60.41120 | 5.39590 | 35991 ft | 438 kts | 313° |
| 2026-05-06 00:14 | 60.45621 | 5.31280 | 35985 ft | 437 kts | 313° |
| 2026-05-06 00:14 | 60.50075 | 5.23029 | 35985 ft | 436 kts | 313° |
| 2026-05-06 00:15 | 60.54553 | 5.14698 | 35978 ft | 436 kts | 312° |
| 2026-05-06 00:15 | 60.59022 | 5.06347 | 35980 ft | 436 kts | 312° |
| 2026-05-06 00:16 | 60.63485 | 4.97975 | 35985 ft | 436 kts | 312° |
| 2026-05-06 00:16 | 60.67942 | 4.89584 | 35996 ft | 437 kts | 313° |
| 2026-05-06 00:17 | 60.72428 | 4.81102 | 35985 ft | 440 kts | 313° |
| 2026-05-06 00:17 | 60.76917 | 4.72583 | 35981 ft | 440 kts | 313° |
| 2026-05-06 00:18 | 60.81260 | 4.64313 | 35979 ft | 439 kts | 312° |
| 2026-05-06 00:18 | 60.85725 | 4.55770 | 35979 ft | 439 kts | 312° |
| 2026-05-06 00:19 | 60.89937 | 4.47681 | 35977 ft | 439 kts | 312° |
| 2026-05-06 00:19 | 60.94401 | 4.39074 | 35975 ft | 439 kts | 312° |
| 2026-05-06 00:20 | 60.98854 | 4.30454 | 35993 ft | 439 kts | 312° |
| 2026-05-06 00:20 | 61.03309 | 4.21792 | 35976 ft | 441 kts | 312° |
| 2026-05-06 00:21 | 61.07748 | 4.13132 | 35966 ft | 442 kts | 312° |
| 2026-05-06 00:21 | 61.12214 | 4.04383 | 35964 ft | 441 kts | 312° |
| 2026-05-06 00:22 | 61.16671 | 3.95615 | 35965 ft | 441 kts | 312° |
| 2026-05-06 00:22 | 61.21119 | 3.86826 | 35961 ft | 441 kts | 312° |
| 2026-05-06 00:23 | 61.25559 | 3.78019 | 35950 ft | 441 kts | 312° |
| 2026-05-06 00:23 | 61.29993 | 3.69187 | 35965 ft | 442 kts | 312° |
| 2026-05-06 00:24 | 61.34413 | 3.60343 | 35958 ft | 445 kts | 312° |
| 2026-05-06 00:24 | 61.38881 | 3.51368 | 35957 ft | 445 kts | 312° |
| 2026-05-06 00:25 | 61.43336 | 3.42385 | 35955 ft | 445 kts | 312° |
| 2026-05-06 00:25 | 61.47778 | 3.33390 | 35961 ft | 445 kts | 312° |
| 2026-05-06 00:26 | 61.52215 | 3.24364 | 35964 ft | 445 kts | 312° |
| 2026-05-06 00:26 | 61.56651 | 3.15305 | 35958 ft | 445 kts | 312° |
| 2026-05-06 00:27 | 61.61082 | 3.06218 | 35967 ft | 445 kts | 312° |
| 2026-05-06 00:27 | 61.65477 | 2.97165 | 35969 ft | 445 kts | 312° |
| 2026-05-06 00:28 | 61.69893 | 2.88032 | 35966 ft | 445 kts | 312° |
| 2026-05-06 00:28 | 61.74300 | 2.78877 | 35960 ft | 444 kts | 311° |
| 2026-05-06 00:29 | 61.78700 | 2.69698 | 35959 ft | 444 kts | 311° |
| 2026-05-06 00:29 | 61.83096 | 2.60489 | 35957 ft | 444 kts | 311° |
| 2026-05-06 00:30 | 61.87480 | 2.51267 | 35961 ft | 444 kts | 311° |
| 2026-05-06 00:30 | 61.91829 | 2.42074 | 35976 ft | 445 kts | 311° |
| 2026-05-06 00:31 | 61.96224 | 2.32745 | 35967 ft | 447 kts | 311° |